sensor_id;sensor_type;location;lat;lon;timestamp;P1;durP1;ratioP1;P2;durP2;ratioP2
59854;SDS011;45732;52.850;6.896;2023-12-20T00:01:20;12.55;;;1.88;;
59854;SDS011;45732;52.850;6.896;2023-12-20T00:03:47;11.45;;;2.00;;
59854;SDS011;45732;52.850;6.896;2023-12-20T00:06:12;10.95;;;2.28;;
59854;SDS011;45732;52.850;6.896;2023-12-20T00:08:38;11.20;;;2.10;;
59854;SDS011;45732;52.850;6.896;2023-12-20T00:11:03;8.13;;;1.77;;
59854;SDS011;45732;52.850;6.896;2023-12-20T00:13:29;14.40;;;2.35;;
59854;SDS011;45732;52.850;6.896;2023-12-20T00:15:55;12.35;;;2.22;;
59854;SDS011;45732;52.850;6.896;2023-12-20T00:18:21;16.55;;;2.53;;
59854;SDS011;45732;52.850;6.896;2023-12-20T00:20:46;11.40;;;2.25;;
59854;SDS011;45732;52.850;6.896;2023-12-20T00:23:12;14.10;;;2.25;;
59854;SDS011;45732;52.850;6.896;2023-12-20T00:25:37;11.93;;;1.92;;
59854;SDS011;45732;52.850;6.896;2023-12-20T00:28:03;11.70;;;1.75;;
59854;SDS011;45732;52.850;6.896;2023-12-20T00:30:29;14.70;;;2.03;;
59854;SDS011;45732;52.850;6.896;2023-12-20T00:32:55;12.27;;;2.22;;
59854;SDS011;45732;52.850;6.896;2023-12-20T00:35:21;11.88;;;2.05;;
59854;SDS011;45732;52.850;6.896;2023-12-20T00:37:47;12.98;;;2.25;;
59854;SDS011;45732;52.850;6.896;2023-12-20T00:40:12;10.55;;;1.90;;
59854;SDS011;45732;52.850;6.896;2023-12-20T00:42:38;14.52;;;2.28;;
59854;SDS011;45732;52.850;6.896;2023-12-20T00:45:04;15.63;;;2.17;;
59854;SDS011;45732;52.850;6.896;2023-12-20T00:47:30;12.40;;;2.25;;
59854;SDS011;45732;52.850;6.896;2023-12-20T00:49:57;19.13;;;2.88;;
59854;SDS011;45732;52.850;6.896;2023-12-20T00:52:23;10.50;;;2.15;;
59854;SDS011;45732;52.850;6.896;2023-12-20T00:54:49;13.02;;;2.60;;
59854;SDS011;45732;52.850;6.896;2023-12-20T00:57:14;13.30;;;2.08;;
59854;SDS011;45732;52.850;6.896;2023-12-20T00:59:40;15.50;;;2.08;;
59854;SDS011;45732;52.850;6.896;2023-12-20T01:02:06;15.98;;;2.50;;
59854;SDS011;45732;52.850;6.896;2023-12-20T01:04:31;12.50;;;2.13;;
59854;SDS011;45732;52.850;6.896;2023-12-20T01:06:57;10.18;;;2.42;;
59854;SDS011;45732;52.850;6.896;2023-12-20T01:09:23;10.85;;;2.50;;
59854;SDS011;45732;52.850;6.896;2023-12-20T01:11:51;12.50;;;2.13;;
59854;SDS011;45732;52.850;6.896;2023-12-20T01:14:18;15.30;;;2.88;;
59854;SDS011;45732;52.850;6.896;2023-12-20T01:16:43;13.35;;;2.17;;
59854;SDS011;45732;52.850;6.896;2023-12-20T01:19:09;17.35;;;2.80;;
59854;SDS011;45732;52.850;6.896;2023-12-20T01:21:35;15.23;;;2.53;;
59854;SDS011;45732;52.850;6.896;2023-12-20T01:24:00;13.80;;;2.42;;
59854;SDS011;45732;52.850;6.896;2023-12-20T01:26:26;10.25;;;2.10;;
59854;SDS011;45732;52.850;6.896;2023-12-20T01:28:52;13.73;;;2.53;;
59854;SDS011;45732;52.850;6.896;2023-12-20T01:31:18;13.02;;;2.60;;
59854;SDS011;45732;52.850;6.896;2023-12-20T01:33:44;14.07;;;2.35;;
59854;SDS011;45732;52.850;6.896;2023-12-20T01:36:09;17.77;;;2.88;;
59854;SDS011;45732;52.850;6.896;2023-12-20T01:38:36;14.10;;;2.38;;
59854;SDS011;45732;52.850;6.896;2023-12-20T01:41:02;14.35;;;2.20;;
59854;SDS011;45732;52.850;6.896;2023-12-20T01:43:29;19.35;;;2.58;;
59854;SDS011;45732;52.850;6.896;2023-12-20T01:45:55;13.05;;;2.65;;
59854;SDS011;45732;52.850;6.896;2023-12-20T01:48:22;18.10;;;2.85;;
59854;SDS011;45732;52.850;6.896;2023-12-20T01:50:49;18.67;;;3.28;;
59854;SDS011;45732;52.850;6.896;2023-12-20T01:53:16;17.48;;;3.00;;
59854;SDS011;45732;52.850;6.896;2023-12-20T01:55:43;12.65;;;2.75;;
59854;SDS011;45732;52.850;6.896;2023-12-20T01:58:10;16.88;;;2.78;;
59854;SDS011;45732;52.850;6.896;2023-12-20T02:00:37;15.88;;;2.85;;
59854;SDS011;45732;52.850;6.896;2023-12-20T02:03:03;15.70;;;2.70;;
59854;SDS011;45732;52.850;6.896;2023-12-20T02:05:30;17.55;;;2.90;;
59854;SDS011;45732;52.850;6.896;2023-12-20T02:07:56;18.75;;;3.20;;
59854;SDS011;45732;52.850;6.896;2023-12-20T02:10:23;18.70;;;3.17;;
59854;SDS011;45732;52.850;6.896;2023-12-20T02:12:49;16.63;;;3.08;;
59854;SDS011;45732;52.850;6.896;2023-12-20T02:15:15;21.05;;;3.33;;
59854;SDS011;45732;52.850;6.896;2023-12-20T02:17:40;16.25;;;2.85;;
59854;SDS011;45732;52.850;6.896;2023-12-20T02:20:06;15.77;;;3.42;;
59854;SDS011;45732;52.850;6.896;2023-12-20T02:22:32;18.75;;;3.10;;
59854;SDS011;45732;52.850;6.896;2023-12-20T02:24:58;16.60;;;3.10;;
59854;SDS011;45732;52.850;6.896;2023-12-20T02:27:23;17.20;;;3.13;;
59854;SDS011;45732;52.850;6.896;2023-12-20T02:29:50;14.63;;;2.83;;
59854;SDS011;45732;52.850;6.896;2023-12-20T02:32:16;18.80;;;3.63;;
59854;SDS011;45732;52.850;6.896;2023-12-20T02:34:42;15.65;;;2.88;;
59854;SDS011;45732;52.850;6.896;2023-12-20T02:37:08;14.57;;;2.50;;
59854;SDS011;45732;52.850;6.896;2023-12-20T02:39:34;15.90;;;2.83;;
59854;SDS011;45732;52.850;6.896;2023-12-20T02:42:00;19.05;;;3.05;;
59854;SDS011;45732;52.850;6.896;2023-12-20T02:44:25;17.27;;;2.97;;
59854;SDS011;45732;52.850;6.896;2023-12-20T02:46:51;17.38;;;2.80;;
59854;SDS011;45732;52.850;6.896;2023-12-20T02:49:17;15.23;;;2.83;;
59854;SDS011;45732;52.850;6.896;2023-12-20T02:51:43;15.18;;;2.90;;
59854;SDS011;45732;52.850;6.896;2023-12-20T02:54:08;20.45;;;3.65;;
59854;SDS011;45732;52.850;6.896;2023-12-20T02:56:34;18.27;;;3.28;;
59854;SDS011;45732;52.850;6.896;2023-12-20T02:59:00;17.75;;;3.50;;
59854;SDS011;45732;52.850;6.896;2023-12-20T03:01:27;20.13;;;3.03;;
59854;SDS011;45732;52.850;6.896;2023-12-20T03:03:54;18.58;;;3.22;;
59854;SDS011;45732;52.850;6.896;2023-12-20T03:06:19;20.38;;;4.07;;
59854;SDS011;45732;52.850;6.896;2023-12-20T03:08:45;17.05;;;3.00;;
59854;SDS011;45732;52.850;6.896;2023-12-20T03:11:11;14.07;;;2.83;;
59854;SDS011;45732;52.850;6.896;2023-12-20T03:13:37;18.77;;;2.92;;
59854;SDS011;45732;52.850;6.896;2023-12-20T03:16:12;17.15;;;3.40;;
59854;SDS011;45732;52.850;6.896;2023-12-20T03:18:38;16.55;;;4.22;;
59854;SDS011;45732;52.850;6.896;2023-12-20T03:21:04;22.27;;;4.05;;
59854;SDS011;45732;52.850;6.896;2023-12-20T03:23:30;22.23;;;3.50;;
59854;SDS011;45732;52.850;6.896;2023-12-20T03:25:57;16.35;;;3.83;;
59854;SDS011;45732;52.850;6.896;2023-12-20T03:28:23;20.02;;;3.38;;
59854;SDS011;45732;52.850;6.896;2023-12-20T03:30:50;16.40;;;3.30;;
59854;SDS011;45732;52.850;6.896;2023-12-20T03:33:15;17.23;;;3.10;;
59854;SDS011;45732;52.850;6.896;2023-12-20T03:35:41;20.30;;;3.40;;
59854;SDS011;45732;52.850;6.896;2023-12-20T03:38:07;18.50;;;4.45;;
59854;SDS011;45732;52.850;6.896;2023-12-20T03:40:33;16.98;;;3.22;;
59854;SDS011;45732;52.850;6.896;2023-12-20T03:42:58;16.23;;;3.92;;
59854;SDS011;45732;52.850;6.896;2023-12-20T03:45:24;17.08;;;3.83;;
59854;SDS011;45732;52.850;6.896;2023-12-20T03:47:50;17.65;;;3.53;;
59854;SDS011;45732;52.850;6.896;2023-12-20T03:50:20;26.27;;;4.63;;
59854;SDS011;45732;52.850;6.896;2023-12-20T03:52:47;20.42;;;3.72;;
59854;SDS011;45732;52.850;6.896;2023-12-20T03:55:13;21.77;;;3.78;;
59854;SDS011;45732;52.850;6.896;2023-12-20T03:57:38;22.17;;;3.83;;
59854;SDS011;45732;52.850;6.896;2023-12-20T04:00:05;24.45;;;4.40;;
59854;SDS011;45732;52.850;6.896;2023-12-20T04:02:35;17.88;;;3.65;;
59854;SDS011;45732;52.850;6.896;2023-12-20T04:05:01;22.27;;;3.70;;
59854;SDS011;45732;52.850;6.896;2023-12-20T04:07:27;22.95;;;4.07;;
59854;SDS011;45732;52.850;6.896;2023-12-20T04:09:53;22.17;;;4.32;;
59854;SDS011;45732;52.850;6.896;2023-12-20T04:12:18;23.88;;;4.30;;
59854;SDS011;45732;52.850;6.896;2023-12-20T04:14:44;25.92;;;4.13;;
59854;SDS011;45732;52.850;6.896;2023-12-20T04:17:10;18.90;;;3.95;;
59854;SDS011;45732;52.850;6.896;2023-12-20T04:19:35;26.42;;;4.40;;
59854;SDS011;45732;52.850;6.896;2023-12-20T04:22:01;21.67;;;4.30;;
59854;SDS011;45732;52.850;6.896;2023-12-20T04:24:27;25.98;;;4.63;;
59854;SDS011;45732;52.850;6.896;2023-12-20T04:26:52;25.90;;;4.15;;
59854;SDS011;45732;52.850;6.896;2023-12-20T04:29:18;24.60;;;4.07;;
59854;SDS011;45732;52.850;6.896;2023-12-20T04:31:44;24.25;;;5.13;;
59854;SDS011;45732;52.850;6.896;2023-12-20T04:34:09;18.98;;;4.05;;
59854;SDS011;45732;52.850;6.896;2023-12-20T04:36:35;22.77;;;4.47;;
59854;SDS011;45732;52.850;6.896;2023-12-20T04:39:01;23.17;;;4.40;;
59854;SDS011;45732;52.850;6.896;2023-12-20T04:41:26;16.50;;;4.15;;
59854;SDS011;45732;52.850;6.896;2023-12-20T04:43:52;27.20;;;4.68;;
59854;SDS011;45732;52.850;6.896;2023-12-20T04:46:18;21.98;;;5.10;;
59854;SDS011;45732;52.850;6.896;2023-12-20T04:48:44;23.95;;;5.80;;
59854;SDS011;45732;52.850;6.896;2023-12-20T04:51:09;21.75;;;4.93;;
59854;SDS011;45732;52.850;6.896;2023-12-20T04:53:35;26.50;;;4.75;;
59854;SDS011;45732;52.850;6.896;2023-12-20T04:56:01;25.10;;;4.43;;
59854;SDS011;45732;52.850;6.896;2023-12-20T04:58:26;28.15;;;4.45;;
59854;SDS011;45732;52.850;6.896;2023-12-20T05:00:52;26.60;;;4.70;;
59854;SDS011;45732;52.850;6.896;2023-12-20T05:03:18;25.42;;;4.68;;
59854;SDS011;45732;52.850;6.896;2023-12-20T05:05:43;28.50;;;4.93;;
59854;SDS011;45732;52.850;6.896;2023-12-20T05:08:09;25.15;;;5.32;;
59854;SDS011;45732;52.850;6.896;2023-12-20T05:10:35;23.67;;;4.50;;
59854;SDS011;45732;52.850;6.896;2023-12-20T05:13:01;24.50;;;4.40;;
59854;SDS011;45732;52.850;6.896;2023-12-20T05:15:27;25.35;;;5.03;;
59854;SDS011;45732;52.850;6.896;2023-12-20T05:17:53;22.73;;;4.40;;
59854;SDS011;45732;52.850;6.896;2023-12-20T05:20:18;29.85;;;5.03;;
59854;SDS011;45732;52.850;6.896;2023-12-20T05:22:44;24.13;;;4.60;;
59854;SDS011;45732;52.850;6.896;2023-12-20T05:25:10;28.33;;;5.03;;
59854;SDS011;45732;52.850;6.896;2023-12-20T05:27:36;26.58;;;4.60;;
59854;SDS011;45732;52.850;6.896;2023-12-20T05:30:01;24.90;;;4.85;;
59854;SDS011;45732;52.850;6.896;2023-12-20T05:32:29;23.20;;;4.90;;
59854;SDS011;45732;52.850;6.896;2023-12-20T05:34:55;25.95;;;5.05;;
59854;SDS011;45732;52.850;6.896;2023-12-20T05:37:20;23.30;;;5.35;;
59854;SDS011;45732;52.850;6.896;2023-12-20T05:39:46;27.38;;;4.93;;
59854;SDS011;45732;52.850;6.896;2023-12-20T05:42:12;25.42;;;4.40;;
59854;SDS011;45732;52.850;6.896;2023-12-20T05:44:37;26.55;;;5.85;;
59854;SDS011;45732;52.850;6.896;2023-12-20T05:47:03;25.08;;;5.30;;
59854;SDS011;45732;52.850;6.896;2023-12-20T05:49:29;20.08;;;4.18;;
59854;SDS011;45732;52.850;6.896;2023-12-20T05:51:54;28.13;;;4.97;;
59854;SDS011;45732;52.850;6.896;2023-12-20T05:54:20;27.88;;;4.82;;
59854;SDS011;45732;52.850;6.896;2023-12-20T05:56:46;24.73;;;4.20;;
59854;SDS011;45732;52.850;6.896;2023-12-20T05:59:12;21.35;;;5.05;;
59854;SDS011;45732;52.850;6.896;2023-12-20T06:01:38;28.30;;;5.28;;
59854;SDS011;45732;52.850;6.896;2023-12-20T06:04:04;24.33;;;4.70;;
59854;SDS011;45732;52.850;6.896;2023-12-20T06:06:30;25.63;;;5.20;;
59854;SDS011;45732;52.850;6.896;2023-12-20T06:08:56;24.00;;;4.80;;
59854;SDS011;45732;52.850;6.896;2023-12-20T06:11:21;27.85;;;4.53;;
59854;SDS011;45732;52.850;6.896;2023-12-20T06:13:47;23.88;;;4.88;;
59854;SDS011;45732;52.850;6.896;2023-12-20T06:16:14;25.75;;;4.60;;
59854;SDS011;45732;52.850;6.896;2023-12-20T06:18:40;26.65;;;5.15;;
59854;SDS011;45732;52.850;6.896;2023-12-20T06:21:06;23.80;;;4.07;;
59854;SDS011;45732;52.850;6.896;2023-12-20T06:23:33;23.70;;;4.32;;
59854;SDS011;45732;52.850;6.896;2023-12-20T06:25:58;30.10;;;4.43;;
59854;SDS011;45732;52.850;6.896;2023-12-20T06:28:24;25.30;;;4.93;;
59854;SDS011;45732;52.850;6.896;2023-12-20T06:30:49;22.58;;;5.05;;
59854;SDS011;45732;52.850;6.896;2023-12-20T06:33:17;26.52;;;5.18;;
59854;SDS011;45732;52.850;6.896;2023-12-20T06:35:43;21.05;;;4.63;;
59854;SDS011;45732;52.850;6.896;2023-12-20T06:38:09;24.13;;;4.20;;
59854;SDS011;45732;52.850;6.896;2023-12-20T06:40:35;22.88;;;5.05;;
59854;SDS011;45732;52.850;6.896;2023-12-20T06:43:00;25.90;;;4.57;;
59854;SDS011;45732;52.850;6.896;2023-12-20T06:45:26;24.95;;;5.45;;
59854;SDS011;45732;52.850;6.896;2023-12-20T06:47:52;24.25;;;4.20;;
59854;SDS011;45732;52.850;6.896;2023-12-20T06:50:17;28.70;;;5.28;;
59854;SDS011;45732;52.850;6.896;2023-12-20T06:52:43;22.30;;;4.47;;
59854;SDS011;45732;52.850;6.896;2023-12-20T06:55:09;23.95;;;4.88;;
59854;SDS011;45732;52.850;6.896;2023-12-20T06:57:34;24.42;;;4.47;;
59854;SDS011;45732;52.850;6.896;2023-12-20T07:00:01;23.65;;;4.40;;
59854;SDS011;45732;52.850;6.896;2023-12-20T07:02:28;22.50;;;3.78;;
59854;SDS011;45732;52.850;6.896;2023-12-20T07:04:55;25.75;;;5.18;;
59854;SDS011;45732;52.850;6.896;2023-12-20T07:07:21;20.88;;;4.55;;
59854;SDS011;45732;52.850;6.896;2023-12-20T07:09:48;29.92;;;5.35;;
59854;SDS011;45732;52.850;6.896;2023-12-20T07:12:14;21.98;;;4.45;;
59854;SDS011;45732;52.850;6.896;2023-12-20T07:14:40;22.25;;;4.60;;
59854;SDS011;45732;52.850;6.896;2023-12-20T07:17:06;21.38;;;4.50;;
59854;SDS011;45732;52.850;6.896;2023-12-20T07:19:37;26.13;;;4.40;;
59854;SDS011;45732;52.850;6.896;2023-12-20T07:22:03;24.05;;;4.10;;
59854;SDS011;45732;52.850;6.896;2023-12-20T07:24:29;22.92;;;4.60;;
59854;SDS011;45732;52.850;6.896;2023-12-20T07:26:55;22.45;;;4.22;;
59854;SDS011;45732;52.850;6.896;2023-12-20T07:29:21;21.90;;;4.75;;
59854;SDS011;45732;52.850;6.896;2023-12-20T07:31:46;26.33;;;5.03;;
59854;SDS011;45732;52.850;6.896;2023-12-20T07:34:12;20.38;;;4.20;;
59854;SDS011;45732;52.850;6.896;2023-12-20T07:36:37;23.90;;;3.75;;
59854;SDS011;45732;52.850;6.896;2023-12-20T07:39:03;25.00;;;5.10;;
59854;SDS011;45732;52.850;6.896;2023-12-20T07:41:29;23.55;;;4.22;;
59854;SDS011;45732;52.850;6.896;2023-12-20T07:43:54;21.73;;;4.72;;
59854;SDS011;45732;52.850;6.896;2023-12-20T07:46:21;20.00;;;4.68;;
59854;SDS011;45732;52.850;6.896;2023-12-20T07:48:50;21.73;;;4.75;;
59854;SDS011;45732;52.850;6.896;2023-12-20T07:51:15;22.80;;;4.78;;
59854;SDS011;45732;52.850;6.896;2023-12-20T07:53:41;25.17;;;4.43;;
59854;SDS011;45732;52.850;6.896;2023-12-20T07:56:16;22.63;;;4.60;;
59854;SDS011;45732;52.850;6.896;2023-12-20T07:58:43;23.92;;;4.70;;
59854;SDS011;45732;52.850;6.896;2023-12-20T08:01:10;23.58;;;5.25;;
59854;SDS011;45732;52.850;6.896;2023-12-20T08:03:36;29.63;;;4.97;;
59854;SDS011;45732;52.850;6.896;2023-12-20T08:06:02;29.08;;;4.85;;
59854;SDS011;45732;52.850;6.896;2023-12-20T08:08:28;20.90;;;4.90;;
59854;SDS011;45732;52.850;6.896;2023-12-20T08:10:54;21.65;;;4.55;;
59854;SDS011;45732;52.850;6.896;2023-12-20T08:13:20;23.35;;;4.90;;
59854;SDS011;45732;52.850;6.896;2023-12-20T08:15:50;16.70;;;4.32;;
59854;SDS011;45732;52.850;6.896;2023-12-20T08:18:15;28.30;;;4.68;;
59854;SDS011;45732;52.850;6.896;2023-12-20T08:20:41;30.25;;;4.75;;
59854;SDS011;45732;52.850;6.896;2023-12-20T08:23:07;24.85;;;4.82;;
59854;SDS011;45732;52.850;6.896;2023-12-20T08:25:32;23.30;;;4.40;;
59854;SDS011;45732;52.850;6.896;2023-12-20T08:27:58;22.98;;;5.43;;
59854;SDS011;45732;52.850;6.896;2023-12-20T08:30:24;25.05;;;4.72;;
59854;SDS011;45732;52.850;6.896;2023-12-20T08:32:50;23.13;;;4.25;;
59854;SDS011;45732;52.850;6.896;2023-12-20T08:35:16;22.23;;;4.95;;
59854;SDS011;45732;52.850;6.896;2023-12-20T08:37:43;23.45;;;5.15;;
59854;SDS011;45732;52.850;6.896;2023-12-20T08:40:08;22.13;;;4.40;;
59854;SDS011;45732;52.850;6.896;2023-12-20T08:42:35;28.38;;;5.03;;
59854;SDS011;45732;52.850;6.896;2023-12-20T08:45:00;25.67;;;4.93;;
59854;SDS011;45732;52.850;6.896;2023-12-20T08:47:26;26.95;;;4.78;;
59854;SDS011;45732;52.850;6.896;2023-12-20T08:49:52;21.00;;;4.68;;
59854;SDS011;45732;52.850;6.896;2023-12-20T08:52:24;25.20;;;4.97;;
59854;SDS011;45732;52.850;6.896;2023-12-20T08:54:52;27.77;;;4.88;;
59854;SDS011;45732;52.850;6.896;2023-12-20T08:57:21;24.50;;;4.60;;
59854;SDS011;45732;52.850;6.896;2023-12-20T08:59:49;19.38;;;4.88;;
59854;SDS011;45732;52.850;6.896;2023-12-20T09:02:15;24.17;;;5.03;;
59854;SDS011;45732;52.850;6.896;2023-12-20T09:04:42;26.55;;;4.88;;
59854;SDS011;45732;52.850;6.896;2023-12-20T09:07:23;24.60;;;5.10;;
59854;SDS011;45732;52.850;6.896;2023-12-20T09:09:51;26.23;;;4.95;;
59854;SDS011;45732;52.850;6.896;2023-12-20T09:12:18;24.45;;;5.10;;
59854;SDS011;45732;52.850;6.896;2023-12-20T09:14:48;24.17;;;5.22;;
59854;SDS011;45732;52.850;6.896;2023-12-20T09:17:15;22.92;;;4.20;;
59854;SDS011;45732;52.850;6.896;2023-12-20T09:19:42;21.15;;;4.75;;
59854;SDS011;45732;52.850;6.896;2023-12-20T09:22:11;22.60;;;4.72;;
59854;SDS011;45732;52.850;6.896;2023-12-20T09:24:37;23.58;;;4.60;;
59854;SDS011;45732;52.850;6.896;2023-12-20T09:27:06;22.27;;;4.53;;
59854;SDS011;45732;52.850;6.896;2023-12-20T09:29:32;22.50;;;4.82;;
59854;SDS011;45732;52.850;6.896;2023-12-20T09:31:57;20.77;;;3.90;;
59854;SDS011;45732;52.850;6.896;2023-12-20T09:34:23;21.83;;;4.60;;
59854;SDS011;45732;52.850;6.896;2023-12-20T09:36:50;19.50;;;4.53;;
59854;SDS011;45732;52.850;6.896;2023-12-20T09:39:17;21.23;;;4.05;;
59854;SDS011;45732;52.850;6.896;2023-12-20T09:44:28;24.10;;;4.73;;
59854;SDS011;45732;52.850;6.896;2023-12-20T09:46:55;27.13;;;5.15;;
59854;SDS011;45732;52.850;6.896;2023-12-20T09:49:22;23.15;;;4.57;;
59854;SDS011;45732;52.850;6.896;2023-12-20T09:51:48;23.52;;;4.93;;
59854;SDS011;45732;52.850;6.896;2023-12-20T09:54:19;25.60;;;4.05;;
59854;SDS011;45732;52.850;6.896;2023-12-20T09:56:46;19.92;;;3.45;;
59854;SDS011;45732;52.850;6.896;2023-12-20T09:59:12;14.20;;;3.53;;
59854;SDS011;45732;52.850;6.896;2023-12-20T10:01:39;11.20;;;2.50;;
59854;SDS011;45732;52.850;6.896;2023-12-20T10:04:06;11.77;;;1.70;;
59854;SDS011;45732;52.850;6.896;2023-12-20T10:06:38;8.43;;;1.10;;
59854;SDS011;45732;52.850;6.896;2023-12-20T10:09:05;9.43;;;1.88;;
59854;SDS011;45732;52.850;6.896;2023-12-20T10:11:31;8.52;;;1.58;;
59854;SDS011;45732;52.850;6.896;2023-12-20T10:13:59;7.45;;;1.63;;
59854;SDS011;45732;52.850;6.896;2023-12-20T10:16:28;9.63;;;1.80;;
59854;SDS011;45732;52.850;6.896;2023-12-20T10:18:55;9.25;;;1.55;;
59854;SDS011;45732;52.850;6.896;2023-12-20T10:21:24;10.82;;;2.15;;
59854;SDS011;45732;52.850;6.896;2023-12-20T10:23:56;10.52;;;1.38;;
59854;SDS011;45732;52.850;6.896;2023-12-20T10:26:24;9.13;;;1.30;;
59854;SDS011;45732;52.850;6.896;2023-12-20T10:28:52;6.78;;;1.33;;
59854;SDS011;45732;52.850;6.896;2023-12-20T10:33:57;9.70;;;1.52;;
59854;SDS011;45732;52.850;6.896;2023-12-20T10:36:24;9.48;;;1.52;;
59854;SDS011;45732;52.850;6.896;2023-12-20T10:38:52;9.88;;;1.48;;
59854;SDS011;45732;52.850;6.896;2023-12-20T10:41:31;9.35;;;1.50;;
59854;SDS011;45732;52.850;6.896;2023-12-20T10:46:25;8.27;;;1.48;;
59854;SDS011;45732;52.850;6.896;2023-12-20T10:48:53;7.28;;;1.52;;
59854;SDS011;45732;52.850;6.896;2023-12-20T10:51:20;7.80;;;1.40;;
59854;SDS011;45732;52.850;6.896;2023-12-20T10:53:48;12.48;;;1.85;;
59854;SDS011;45732;52.850;6.896;2023-12-20T10:56:15;10.75;;;1.63;;
59854;SDS011;45732;52.850;6.896;2023-12-20T10:58:43;13.13;;;2.65;;
59854;SDS011;45732;52.850;6.896;2023-12-20T11:01:10;11.95;;;1.48;;
59854;SDS011;45732;52.850;6.896;2023-12-20T11:03:44;11.75;;;1.67;;
59854;SDS011;45732;52.850;6.896;2023-12-20T11:08:55;7.40;;;1.50;;
59854;SDS011;45732;52.850;6.896;2023-12-20T11:11:45;9.90;;;1.60;;
59854;SDS011;45732;52.850;6.896;2023-12-20T11:14:21;11.40;;;1.92;;
59854;SDS011;45732;52.850;6.896;2023-12-20T11:16:50;9.30;;;1.70;;
59854;SDS011;45732;52.850;6.896;2023-12-20T11:19:16;10.05;;;1.50;;
59854;SDS011;45732;52.850;6.896;2023-12-20T11:21:42;8.45;;;2.10;;
59854;SDS011;45732;52.850;6.896;2023-12-20T11:24:08;10.15;;;2.10;;
59854;SDS011;45732;52.850;6.896;2023-12-20T11:26:35;10.60;;;1.67;;
59854;SDS011;45732;52.850;6.896;2023-12-20T11:31:54;8.75;;;1.60;;
59854;SDS011;45732;52.850;6.896;2023-12-20T11:34:20;9.85;;;1.30;;
59854;SDS011;45732;52.850;6.896;2023-12-20T11:36:45;11.55;;;1.90;;
59854;SDS011;45732;52.850;6.896;2023-12-20T11:39:11;13.95;;;2.20;;
59854;SDS011;45732;52.850;6.896;2023-12-20T11:41:44;15.57;;;1.90;;
59854;SDS011;45732;52.850;6.896;2023-12-20T11:44:10;10.93;;;1.50;;
59854;SDS011;45732;52.850;6.896;2023-12-20T11:46:36;12.77;;;2.58;;
59854;SDS011;45732;52.850;6.896;2023-12-20T11:49:02;8.82;;;2.10;;
59854;SDS011;45732;52.850;6.896;2023-12-20T11:51:28;15.25;;;2.42;;
59854;SDS011;45732;52.850;6.896;2023-12-20T11:53:53;10.23;;;1.75;;
59854;SDS011;45732;52.850;6.896;2023-12-20T11:56:19;10.30;;;1.98;;
59854;SDS011;45732;52.850;6.896;2023-12-20T11:58:45;15.93;;;1.88;;
59854;SDS011;45732;52.850;6.896;2023-12-20T12:01:11;12.65;;;2.13;;
59854;SDS011;45732;52.850;6.896;2023-12-20T12:03:36;9.40;;;1.70;;
59854;SDS011;45732;52.850;6.896;2023-12-20T12:06:02;14.25;;;2.30;;
59854;SDS011;45732;52.850;6.896;2023-12-20T12:08:29;12.30;;;2.10;;
59854;SDS011;45732;52.850;6.896;2023-12-20T12:10:55;12.45;;;1.80;;
59854;SDS011;45732;52.850;6.896;2023-12-20T12:13:21;15.10;;;2.58;;
59854;SDS011;45732;52.850;6.896;2023-12-20T12:15:47;13.00;;;2.08;;
59854;SDS011;45732;52.850;6.896;2023-12-20T12:18:15;13.13;;;2.15;;
59854;SDS011;45732;52.850;6.896;2023-12-20T12:20:41;15.93;;;2.17;;
59854;SDS011;45732;52.850;6.896;2023-12-20T12:23:07;12.13;;;2.05;;
59854;SDS011;45732;52.850;6.896;2023-12-20T12:25:36;9.98;;;2.22;;
59854;SDS011;45732;52.850;6.896;2023-12-20T12:28:02;15.43;;;2.33;;
59854;SDS011;45732;52.850;6.896;2023-12-20T12:30:28;16.58;;;2.28;;
59854;SDS011;45732;52.850;6.896;2023-12-20T12:32:56;11.13;;;2.10;;
59854;SDS011;45732;52.850;6.896;2023-12-20T12:35:25;10.80;;;2.10;;
59854;SDS011;45732;52.850;6.896;2023-12-20T12:37:51;14.23;;;2.10;;
59854;SDS011;45732;52.850;6.896;2023-12-20T12:40:17;13.15;;;2.25;;
59854;SDS011;45732;52.850;6.896;2023-12-20T12:42:43;14.65;;;2.60;;
59854;SDS011;45732;52.850;6.896;2023-12-20T12:45:10;14.80;;;3.05;;
59854;SDS011;45732;52.850;6.896;2023-12-20T12:47:37;14.05;;;2.80;;
59854;SDS011;45732;52.850;6.896;2023-12-20T12:50:03;11.77;;;2.50;;
59854;SDS011;45732;52.850;6.896;2023-12-20T12:52:30;12.30;;;2.28;;
59854;SDS011;45732;52.850;6.896;2023-12-20T12:54:56;14.38;;;2.20;;
59854;SDS011;45732;52.850;6.896;2023-12-20T12:57:21;13.02;;;2.00;;
59854;SDS011;45732;52.850;6.896;2023-12-20T12:59:47;11.10;;;2.15;;
59854;SDS011;45732;52.850;6.896;2023-12-20T13:02:13;11.80;;;2.47;;
59854;SDS011;45732;52.850;6.896;2023-12-20T13:04:40;11.57;;;1.77;;
59854;SDS011;45732;52.850;6.896;2023-12-20T13:07:06;11.88;;;1.98;;
59854;SDS011;45732;52.850;6.896;2023-12-20T13:09:33;14.65;;;2.28;;
59854;SDS011;45732;52.850;6.896;2023-12-20T13:11:58;8.77;;;2.13;;
59854;SDS011;45732;52.850;6.896;2023-12-20T13:14:24;14.35;;;2.30;;
59854;SDS011;45732;52.850;6.896;2023-12-20T13:16:50;10.50;;;1.80;;
59854;SDS011;45732;52.850;6.896;2023-12-20T13:19:16;15.82;;;2.42;;
59854;SDS011;45732;52.850;6.896;2023-12-20T13:21:41;12.35;;;2.60;;
59854;SDS011;45732;52.850;6.896;2023-12-20T13:24:07;12.68;;;2.35;;
59854;SDS011;45732;52.850;6.896;2023-12-20T13:26:33;11.73;;;2.30;;
59854;SDS011;45732;52.850;6.896;2023-12-20T13:28:58;13.70;;;2.65;;
59854;SDS011;45732;52.850;6.896;2023-12-20T13:31:24;14.25;;;2.40;;
59854;SDS011;45732;52.850;6.896;2023-12-20T13:33:50;9.80;;;2.03;;
59854;SDS011;45732;52.850;6.896;2023-12-20T13:36:17;11.30;;;2.42;;
59854;SDS011;45732;52.850;6.896;2023-12-20T13:38:43;14.23;;;2.45;;
59854;SDS011;45732;52.850;6.896;2023-12-20T13:41:09;9.30;;;1.70;;
59854;SDS011;45732;52.850;6.896;2023-12-20T13:43:35;13.15;;;2.45;;
59854;SDS011;45732;52.850;6.896;2023-12-20T13:46:00;12.90;;;2.15;;
59854;SDS011;45732;52.850;6.896;2023-12-20T13:48:26;12.32;;;2.05;;
59854;SDS011;45732;52.850;6.896;2023-12-20T13:50:52;11.88;;;1.98;;
59854;SDS011;45732;52.850;6.896;2023-12-20T13:53:18;11.20;;;2.25;;
59854;SDS011;45732;52.850;6.896;2023-12-20T13:55:44;12.82;;;2.25;;
59854;SDS011;45732;52.850;6.896;2023-12-20T13:58:10;11.18;;;1.90;;
59854;SDS011;45732;52.850;6.896;2023-12-20T14:00:36;13.27;;;2.58;;
59854;SDS011;45732;52.850;6.896;2023-12-20T14:03:02;12.57;;;2.38;;
59854;SDS011;45732;52.850;6.896;2023-12-20T14:05:32;11.15;;;2.30;;
59854;SDS011;45732;52.850;6.896;2023-12-20T14:07:58;13.65;;;2.30;;
59854;SDS011;45732;52.850;6.896;2023-12-20T14:10:25;11.25;;;2.08;;
59854;SDS011;45732;52.850;6.896;2023-12-20T14:12:52;11.05;;;2.65;;
59854;SDS011;45732;52.850;6.896;2023-12-20T14:15:18;12.90;;;2.08;;
59854;SDS011;45732;52.850;6.896;2023-12-20T14:17:44;14.13;;;2.10;;
59854;SDS011;45732;52.850;6.896;2023-12-20T14:20:10;14.30;;;2.10;;
59854;SDS011;45732;52.850;6.896;2023-12-20T14:22:38;11.60;;;1.77;;
59854;SDS011;45732;52.850;6.896;2023-12-20T14:25:04;11.73;;;2.65;;
59854;SDS011;45732;52.850;6.896;2023-12-20T14:27:31;8.38;;;2.08;;
59854;SDS011;45732;52.850;6.896;2023-12-20T14:29:57;9.38;;;2.40;;
59854;SDS011;45732;52.850;6.896;2023-12-20T14:32:23;12.35;;;2.20;;
59854;SDS011;45732;52.850;6.896;2023-12-20T14:34:49;10.60;;;1.70;;
59854;SDS011;45732;52.850;6.896;2023-12-20T14:37:15;11.98;;;2.13;;
59854;SDS011;45732;52.850;6.896;2023-12-20T14:39:42;12.10;;;2.03;;
59854;SDS011;45732;52.850;6.896;2023-12-20T14:42:08;11.45;;;1.98;;
59854;SDS011;45732;52.850;6.896;2023-12-20T14:44:42;11.13;;;1.90;;